sensor_id;sensor_type;location;lat;lon;timestamp;P1;durP1;ratioP1;P2;durP2;ratioP2
77449;SDS011;66536;53.150;18.172;2023-12-04T00:01:46;29.80;;;12.60;;
77449;SDS011;66536;53.150;18.172;2023-12-04T00:04:13;31.30;;;13.30;;
77449;SDS011;66536;53.150;18.172;2023-12-04T00:06:41;32.00;;;12.90;;
77449;SDS011;66536;53.150;18.172;2023-12-04T00:09:08;32.90;;;12.70;;
77449;SDS011;66536;53.150;18.172;2023-12-04T00:11:35;37.80;;;14.20;;
77449;SDS011;66536;53.150;18.172;2023-12-04T00:14:02;33.70;;;13.40;;
77449;SDS011;66536;53.150;18.172;2023-12-04T00:16:29;32.70;;;13.40;;
77449;SDS011;66536;53.150;18.172;2023-12-04T00:18:55;35.50;;;13.80;;
77449;SDS011;66536;53.150;18.172;2023-12-04T00:21:22;31.90;;;12.30;;
77449;SDS011;66536;53.150;18.172;2023-12-04T00:23:49;36.40;;;13.60;;
77449;SDS011;66536;53.150;18.172;2023-12-04T00:26:15;33.70;;;13.30;;
77449;SDS011;66536;53.150;18.172;2023-12-04T00:28:42;31.20;;;12.00;;
77449;SDS011;66536;53.150;18.172;2023-12-04T00:31:09;33.80;;;12.50;;
77449;SDS011;66536;53.150;18.172;2023-12-04T00:33:37;28.20;;;12.90;;
77449;SDS011;66536;53.150;18.172;2023-12-04T00:36:04;30.00;;;12.90;;
77449;SDS011;66536;53.150;18.172;2023-12-04T00:38:31;33.50;;;13.50;;
77449;SDS011;66536;53.150;18.172;2023-12-04T00:40:58;28.60;;;12.10;;
77449;SDS011;66536;53.150;18.172;2023-12-04T00:43:25;28.90;;;11.80;;
77449;SDS011;66536;53.150;18.172;2023-12-04T00:45:51;29.20;;;11.40;;
77449;SDS011;66536;53.150;18.172;2023-12-04T00:48:18;28.00;;;11.80;;
77449;SDS011;66536;53.150;18.172;2023-12-04T00:50:45;26.70;;;11.50;;
77449;SDS011;66536;53.150;18.172;2023-12-04T00:53:12;32.50;;;12.40;;
77449;SDS011;66536;53.150;18.172;2023-12-04T00:55:38;33.60;;;11.90;;
77449;SDS011;66536;53.150;18.172;2023-12-04T00:58:05;34.00;;;13.40;;
77449;SDS011;66536;53.150;18.172;2023-12-04T01:00:32;35.20;;;13.70;;
77449;SDS011;66536;53.150;18.172;2023-12-04T01:02:59;38.70;;;14.80;;
77449;SDS011;66536;53.150;18.172;2023-12-04T01:05:26;36.30;;;14.00;;
77449;SDS011;66536;53.150;18.172;2023-12-04T01:07:52;35.80;;;14.90;;
77449;SDS011;66536;53.150;18.172;2023-12-04T01:10:19;36.50;;;14.70;;
77449;SDS011;66536;53.150;18.172;2023-12-04T01:12:46;31.60;;;13.30;;
77449;SDS011;66536;53.150;18.172;2023-12-04T01:15:13;27.00;;;11.30;;
77449;SDS011;66536;53.150;18.172;2023-12-04T01:17:40;28.50;;;11.50;;
77449;SDS011;66536;53.150;18.172;2023-12-04T01:20:07;26.30;;;11.70;;
77449;SDS011;66536;53.150;18.172;2023-12-04T01:22:34;40.20;;;11.10;;
77449;SDS011;66536;53.150;18.172;2023-12-04T01:25:01;22.60;;;10.10;;
77449;SDS011;66536;53.150;18.172;2023-12-04T01:27:29;25.40;;;10.90;;
77449;SDS011;66536;53.150;18.172;2023-12-04T01:29:56;24.60;;;9.90;;
77449;SDS011;66536;53.150;18.172;2023-12-04T01:32:23;21.00;;;10.40;;
77449;SDS011;66536;53.150;18.172;2023-12-04T01:34:49;24.80;;;10.40;;
77449;SDS011;66536;53.150;18.172;2023-12-04T01:37:16;22.40;;;10.40;;
77449;SDS011;66536;53.150;18.172;2023-12-04T01:39:43;27.40;;;11.70;;
77449;SDS011;66536;53.150;18.172;2023-12-04T01:42:10;23.90;;;10.90;;
77449;SDS011;66536;53.150;18.172;2023-12-04T01:44:37;23.00;;;10.50;;
77449;SDS011;66536;53.150;18.172;2023-12-04T01:47:04;25.30;;;11.20;;
77449;SDS011;66536;53.150;18.172;2023-12-04T01:49:31;30.10;;;12.70;;
77449;SDS011;66536;53.150;18.172;2023-12-04T01:51:58;24.30;;;11.30;;
77449;SDS011;66536;53.150;18.172;2023-12-04T01:54:25;27.20;;;11.10;;
77449;SDS011;66536;53.150;18.172;2023-12-04T01:56:52;25.90;;;12.40;;
77449;SDS011;66536;53.150;18.172;2023-12-04T01:59:19;28.20;;;11.80;;
77449;SDS011;66536;53.150;18.172;2023-12-04T02:01:46;26.60;;;10.80;;
77449;SDS011;66536;53.150;18.172;2023-12-04T02:04:14;23.80;;;11.50;;
77449;SDS011;66536;53.150;18.172;2023-12-04T02:06:42;25.20;;;11.50;;
77449;SDS011;66536;53.150;18.172;2023-12-04T02:09:09;26.40;;;11.70;;
77449;SDS011;66536;53.150;18.172;2023-12-04T02:11:38;27.00;;;11.80;;
77449;SDS011;66536;53.150;18.172;2023-12-04T02:14:06;24.90;;;11.40;;
77449;SDS011;66536;53.150;18.172;2023-12-04T02:16:35;25.40;;;11.00;;
77449;SDS011;66536;53.150;18.172;2023-12-04T02:19:07;24.60;;;11.30;;
77449;SDS011;66536;53.150;18.172;2023-12-04T02:21:35;23.60;;;10.70;;
77449;SDS011;66536;53.150;18.172;2023-12-04T02:24:02;26.60;;;11.50;;
77449;SDS011;66536;53.150;18.172;2023-12-04T02:29:14;26.70;;;11.50;;
77449;SDS011;66536;53.150;18.172;2023-12-04T02:31:47;28.20;;;11.50;;
77449;SDS011;66536;53.150;18.172;2023-12-04T02:34:18;24.10;;;11.00;;
77449;SDS011;66536;53.150;18.172;2023-12-04T02:36:46;26.70;;;11.20;;
77449;SDS011;66536;53.150;18.172;2023-12-04T02:39:14;26.40;;;12.00;;
77449;SDS011;66536;53.150;18.172;2023-12-04T02:41:41;29.00;;;12.30;;
77449;SDS011;66536;53.150;18.172;2023-12-04T02:44:08;28.40;;;11.90;;
77449;SDS011;66536;53.150;18.172;2023-12-04T02:46:35;27.80;;;11.40;;
77449;SDS011;66536;53.150;18.172;2023-12-04T02:49:01;27.40;;;11.70;;
77449;SDS011;66536;53.150;18.172;2023-12-04T02:51:28;25.40;;;11.70;;
77449;SDS011;66536;53.150;18.172;2023-12-04T02:53:55;23.50;;;11.30;;
77449;SDS011;66536;53.150;18.172;2023-12-04T02:56:22;26.20;;;10.60;;
77449;SDS011;66536;53.150;18.172;2023-12-04T02:58:48;27.30;;;11.70;;
77449;SDS011;66536;53.150;18.172;2023-12-04T03:01:15;22.80;;;10.80;;
77449;SDS011;66536;53.150;18.172;2023-12-04T03:03:42;25.60;;;11.40;;
77449;SDS011;66536;53.150;18.172;2023-12-04T03:06:09;29.80;;;11.50;;
77449;SDS011;66536;53.150;18.172;2023-12-04T03:08:36;21.80;;;10.50;;
77449;SDS011;66536;53.150;18.172;2023-12-04T03:11:03;23.60;;;11.00;;
77449;SDS011;66536;53.150;18.172;2023-12-04T03:13:30;23.30;;;10.10;;
77449;SDS011;66536;53.150;18.172;2023-12-04T03:15:57;22.80;;;10.00;;
77449;SDS011;66536;53.150;18.172;2023-12-04T03:18:24;25.90;;;11.50;;
77449;SDS011;66536;53.150;18.172;2023-12-04T03:20:52;24.60;;;10.80;;
77449;SDS011;66536;53.150;18.172;2023-12-04T03:23:18;28.80;;;12.50;;
77449;SDS011;66536;53.150;18.172;2023-12-04T03:25:45;26.10;;;10.60;;
77449;SDS011;66536;53.150;18.172;2023-12-04T03:28:12;30.30;;;11.80;;
77449;SDS011;66536;53.150;18.172;2023-12-04T03:30:41;23.30;;;10.60;;
77449;SDS011;66536;53.150;18.172;2023-12-04T03:33:11;26.50;;;11.40;;
77449;SDS011;66536;53.150;18.172;2023-12-04T03:35:39;27.90;;;12.30;;
77449;SDS011;66536;53.150;18.172;2023-12-04T03:38:06;27.80;;;12.60;;
77449;SDS011;66536;53.150;18.172;2023-12-04T03:40:33;26.60;;;11.80;;
77449;SDS011;66536;53.150;18.172;2023-12-04T03:43:01;28.10;;;12.00;;
77449;SDS011;66536;53.150;18.172;2023-12-04T03:45:27;24.80;;;11.50;;
77449;SDS011;66536;53.150;18.172;2023-12-04T03:47:54;31.70;;;12.90;;
77449;SDS011;66536;53.150;18.172;2023-12-04T03:50:21;33.40;;;14.30;;
77449;SDS011;66536;53.150;18.172;2023-12-04T03:52:48;32.90;;;12.90;;
77449;SDS011;66536;53.150;18.172;2023-12-04T03:55:14;31.70;;;12.80;;
77449;SDS011;66536;53.150;18.172;2023-12-04T03:57:41;30.00;;;13.20;;
77449;SDS011;66536;53.150;18.172;2023-12-04T04:00:09;27.60;;;11.60;;
77449;SDS011;66536;53.150;18.172;2023-12-04T04:02:41;26.50;;;10.90;;
77449;SDS011;66536;53.150;18.172;2023-12-04T04:05:09;28.70;;;12.10;;
77449;SDS011;66536;53.150;18.172;2023-12-04T04:07:36;28.30;;;11.50;;
77449;SDS011;66536;53.150;18.172;2023-12-04T04:10:03;30.20;;;11.50;;
77449;SDS011;66536;53.150;18.172;2023-12-04T04:12:31;24.80;;;10.70;;
77449;SDS011;66536;53.150;18.172;2023-12-04T04:14:58;23.10;;;10.40;;
77449;SDS011;66536;53.150;18.172;2023-12-04T04:17:25;24.10;;;10.30;;
77449;SDS011;66536;53.150;18.172;2023-12-04T04:19:53;28.10;;;12.00;;
77449;SDS011;66536;53.150;18.172;2023-12-04T04:22:20;25.80;;;11.30;;
77449;SDS011;66536;53.150;18.172;2023-12-04T04:24:48;27.80;;;11.00;;
77449;SDS011;66536;53.150;18.172;2023-12-04T04:27:15;28.70;;;13.10;;
77449;SDS011;66536;53.150;18.172;2023-12-04T04:29:42;39.20;;;15.80;;
77449;SDS011;66536;53.150;18.172;2023-12-04T04:32:09;51.30;;;17.00;;
77449;SDS011;66536;53.150;18.172;2023-12-04T04:34:35;50.70;;;16.90;;
77449;SDS011;66536;53.150;18.172;2023-12-04T04:37:02;48.90;;;18.30;;
77449;SDS011;66536;53.150;18.172;2023-12-04T04:39:29;47.80;;;18.00;;
77449;SDS011;66536;53.150;18.172;2023-12-04T04:41:56;52.40;;;18.40;;
77449;SDS011;66536;53.150;18.172;2023-12-04T04:44:22;46.00;;;18.10;;
77449;SDS011;66536;53.150;18.172;2023-12-04T04:46:49;36.40;;;15.70;;
77449;SDS011;66536;53.150;18.172;2023-12-04T04:49:17;37.60;;;17.10;;
77449;SDS011;66536;53.150;18.172;2023-12-04T04:51:43;38.80;;;15.80;;
77449;SDS011;66536;53.150;18.172;2023-12-04T04:54:10;39.50;;;15.80;;
77449;SDS011;66536;53.150;18.172;2023-12-04T04:56:37;39.80;;;14.50;;
77449;SDS011;66536;53.150;18.172;2023-12-04T04:59:04;38.10;;;15.40;;
77449;SDS011;66536;53.150;18.172;2023-12-04T05:01:31;35.00;;;15.10;;
77449;SDS011;66536;53.150;18.172;2023-12-04T05:03:58;33.00;;;14.00;;
77449;SDS011;66536;53.150;18.172;2023-12-04T05:06:24;39.60;;;15.70;;
77449;SDS011;66536;53.150;18.172;2023-12-04T05:08:51;35.90;;;14.00;;
77449;SDS011;66536;53.150;18.172;2023-12-04T05:11:18;38.80;;;15.20;;
77449;SDS011;66536;53.150;18.172;2023-12-04T05:13:45;43.10;;;15.30;;
77449;SDS011;66536;53.150;18.172;2023-12-04T05:16:12;36.20;;;14.90;;
77449;SDS011;66536;53.150;18.172;2023-12-04T05:18:39;48.30;;;16.30;;
77449;SDS011;66536;53.150;18.172;2023-12-04T05:21:08;42.40;;;15.20;;
77449;SDS011;66536;53.150;18.172;2023-12-04T05:23:36;40.80;;;15.10;;
77449;SDS011;66536;53.150;18.172;2023-12-04T05:26:04;36.30;;;15.00;;
77449;SDS011;66536;53.150;18.172;2023-12-04T05:28:33;42.10;;;15.70;;
77449;SDS011;66536;53.150;18.172;2023-12-04T05:31:00;43.50;;;15.70;;
77449;SDS011;66536;53.150;18.172;2023-12-04T05:33:27;44.00;;;16.10;;
77449;SDS011;66536;53.150;18.172;2023-12-04T05:35:54;40.80;;;15.30;;
77449;SDS011;66536;53.150;18.172;2023-12-04T05:38:21;41.70;;;16.60;;
77449;SDS011;66536;53.150;18.172;2023-12-04T05:40:48;43.60;;;16.10;;
77449;SDS011;66536;53.150;18.172;2023-12-04T05:43:15;37.80;;;15.50;;
77449;SDS011;66536;53.150;18.172;2023-12-04T05:45:42;62.30;;;25.00;;
77449;SDS011;66536;53.150;18.172;2023-12-04T05:48:08;36.20;;;15.10;;
77449;SDS011;66536;53.150;18.172;2023-12-04T05:50:35;40.90;;;16.40;;
77449;SDS011;66536;53.150;18.172;2023-12-04T05:53:02;36.10;;;15.30;;
77449;SDS011;66536;53.150;18.172;2023-12-04T05:55:29;39.10;;;15.40;;
77449;SDS011;66536;53.150;18.172;2023-12-04T05:57:56;36.80;;;15.50;;
77449;SDS011;66536;53.150;18.172;2023-12-04T06:00:22;35.40;;;15.00;;
77449;SDS011;66536;53.150;18.172;2023-12-04T06:02:49;42.30;;;16.00;;
77449;SDS011;66536;53.150;18.172;2023-12-04T06:05:16;38.30;;;14.60;;
77449;SDS011;66536;53.150;18.172;2023-12-04T06:07:43;38.00;;;17.00;;
77449;SDS011;66536;53.150;18.172;2023-12-04T06:10:10;41.60;;;16.50;;
77449;SDS011;66536;53.150;18.172;2023-12-04T06:12:36;37.20;;;15.60;;
77449;SDS011;66536;53.150;18.172;2023-12-04T06:15:03;34.50;;;14.70;;
77449;SDS011;66536;53.150;18.172;2023-12-04T06:17:31;36.40;;;14.60;;
77449;SDS011;66536;53.150;18.172;2023-12-04T06:19:57;37.30;;;14.80;;
77449;SDS011;66536;53.150;18.172;2023-12-04T06:22:24;43.00;;;17.50;;
77449;SDS011;66536;53.150;18.172;2023-12-04T06:24:51;42.80;;;16.20;;
77449;SDS011;66536;53.150;18.172;2023-12-04T06:27:19;41.80;;;16.80;;
77449;SDS011;66536;53.150;18.172;2023-12-04T06:29:47;37.10;;;15.80;;
77449;SDS011;66536;53.150;18.172;2023-12-04T06:32:15;41.50;;;15.30;;
77449;SDS011;66536;53.150;18.172;2023-12-04T06:34:42;35.00;;;14.40;;
77449;SDS011;66536;53.150;18.172;2023-12-04T06:37:10;34.00;;;14.80;;
77449;SDS011;66536;53.150;18.172;2023-12-04T06:39:38;39.10;;;15.50;;
77449;SDS011;66536;53.150;18.172;2023-12-04T06:42:06;43.70;;;17.00;;
77449;SDS011;66536;53.150;18.172;2023-12-04T06:44:34;49.00;;;17.90;;
77449;SDS011;66536;53.150;18.172;2023-12-04T06:47:01;39.50;;;16.70;;
77449;SDS011;66536;53.150;18.172;2023-12-04T06:49:30;40.20;;;16.40;;
77449;SDS011;66536;53.150;18.172;2023-12-04T06:51:59;38.70;;;15.50;;
77449;SDS011;66536;53.150;18.172;2023-12-04T06:54:26;37.30;;;15.90;;
77449;SDS011;66536;53.150;18.172;2023-12-04T06:56:54;37.70;;;16.00;;
77449;SDS011;66536;53.150;18.172;2023-12-04T06:59:21;81.50;;;30.90;;
77449;SDS011;66536;53.150;18.172;2023-12-04T07:01:48;46.30;;;17.30;;
77449;SDS011;66536;53.150;18.172;2023-12-04T07:04:15;37.30;;;15.60;;
77449;SDS011;66536;53.150;18.172;2023-12-04T07:06:47;36.90;;;15.20;;
77449;SDS011;66536;53.150;18.172;2023-12-04T07:09:14;36.90;;;15.30;;
77449;SDS011;66536;53.150;18.172;2023-12-04T07:11:43;37.60;;;14.50;;
77449;SDS011;66536;53.150;18.172;2023-12-04T07:14:10;34.60;;;14.60;;
77449;SDS011;66536;53.150;18.172;2023-12-04T07:16:39;34.40;;;14.70;;
77449;SDS011;66536;53.150;18.172;2023-12-04T07:19:08;44.40;;;18.00;;
77449;SDS011;66536;53.150;18.172;2023-12-04T07:21:36;48.10;;;18.60;;
77449;SDS011;66536;53.150;18.172;2023-12-04T07:24:03;45.50;;;18.60;;
77449;SDS011;66536;53.150;18.172;2023-12-04T07:26:33;48.30;;;18.30;;
77449;SDS011;66536;53.150;18.172;2023-12-04T07:29:02;36.50;;;15.40;;
77449;SDS011;66536;53.150;18.172;2023-12-04T07:31:30;38.20;;;16.20;;
77449;SDS011;66536;53.150;18.172;2023-12-04T07:33:57;46.40;;;17.30;;
77449;SDS011;66536;53.150;18.172;2023-12-04T07:36:26;43.60;;;17.20;;
77449;SDS011;66536;53.150;18.172;2023-12-04T07:38:54;48.90;;;17.90;;
77449;SDS011;66536;53.150;18.172;2023-12-04T07:41:21;43.70;;;18.70;;
77449;SDS011;66536;53.150;18.172;2023-12-04T07:43:48;49.30;;;19.90;;
77449;SDS011;66536;53.150;18.172;2023-12-04T07:46:15;58.90;;;21.60;;
77449;SDS011;66536;53.150;18.172;2023-12-04T07:48:42;65.10;;;22.10;;
77449;SDS011;66536;53.150;18.172;2023-12-04T07:51:12;57.90;;;22.20;;
77449;SDS011;66536;53.150;18.172;2023-12-04T07:53:38;60.60;;;23.70;;
77449;SDS011;66536;53.150;18.172;2023-12-04T07:56:05;60.40;;;23.50;;
77449;SDS011;66536;53.150;18.172;2023-12-04T07:58:32;82.90;;;34.20;;
77449;SDS011;66536;53.150;18.172;2023-12-04T08:00:59;53.50;;;22.80;;
77449;SDS011;66536;53.150;18.172;2023-12-04T08:03:27;40.30;;;18.20;;
77449;SDS011;66536;53.150;18.172;2023-12-04T08:05:54;53.50;;;22.20;;
77449;SDS011;66536;53.150;18.172;2023-12-04T08:08:22;38.40;;;17.10;;
77449;SDS011;66536;53.150;18.172;2023-12-04T08:10:48;43.70;;;17.60;;
77449;SDS011;66536;53.150;18.172;2023-12-04T08:13:15;41.40;;;15.80;;
77449;SDS011;66536;53.150;18.172;2023-12-04T08:15:43;41.60;;;16.90;;
77449;SDS011;66536;53.150;18.172;2023-12-04T08:18:10;42.00;;;17.90;;
77449;SDS011;66536;53.150;18.172;2023-12-04T08:20:37;80.90;;;32.00;;
77449;SDS011;66536;53.150;18.172;2023-12-04T08:23:04;49.10;;;18.70;;
77449;SDS011;66536;53.150;18.172;2023-12-04T08:25:32;48.40;;;19.80;;
77449;SDS011;66536;53.150;18.172;2023-12-04T08:27:58;42.80;;;18.90;;
77449;SDS011;66536;53.150;18.172;2023-12-04T08:30:26;40.80;;;17.60;;
77449;SDS011;66536;53.150;18.172;2023-12-04T08:32:53;47.80;;;20.90;;
77449;SDS011;66536;53.150;18.172;2023-12-04T08:35:21;38.70;;;16.90;;
77449;SDS011;66536;53.150;18.172;2023-12-04T08:37:48;42.10;;;17.00;;
77449;SDS011;66536;53.150;18.172;2023-12-04T08:40:15;43.10;;;17.50;;
77449;SDS011;66536;53.150;18.172;2023-12-04T08:42:43;50.00;;;19.70;;
77449;SDS011;66536;53.150;18.172;2023-12-04T08:45:10;49.70;;;20.00;;
77449;SDS011;66536;53.150;18.172;2023-12-04T08:47:37;46.40;;;18.90;;
77449;SDS011;66536;53.150;18.172;2023-12-04T08:50:04;42.70;;;17.40;;
77449;SDS011;66536;53.150;18.172;2023-12-04T08:52:31;44.80;;;19.10;;
77449;SDS011;66536;53.150;18.172;2023-12-04T08:54:59;40.10;;;16.70;;
77449;SDS011;66536;53.150;18.172;2023-12-04T08:57:26;49.20;;;19.80;;
77449;SDS011;66536;53.150;18.172;2023-12-04T08:59:52;37.70;;;16.70;;
77449;SDS011;66536;53.150;18.172;2023-12-04T09:02:19;73.00;;;27.80;;
77449;SDS011;66536;53.150;18.172;2023-12-04T09:04:46;48.30;;;19.10;;
77449;SDS011;66536;53.150;18.172;2023-12-04T09:07:13;45.10;;;18.70;;
77449;SDS011;66536;53.150;18.172;2023-12-04T09:09:41;41.00;;;17.30;;
77449;SDS011;66536;53.150;18.172;2023-12-04T09:12:09;56.90;;;24.20;;
77449;SDS011;66536;53.150;18.172;2023-12-04T09:14:36;77.00;;;30.20;;
77449;SDS011;66536;53.150;18.172;2023-12-04T09:17:03;49.40;;;20.70;;
77449;SDS011;66536;53.150;18.172;2023-12-04T09:19:30;49.80;;;19.90;;
77449;SDS011;66536;53.150;18.172;2023-12-04T09:21:57;48.20;;;19.00;;
77449;SDS011;66536;53.150;18.172;2023-12-04T09:24:24;38.70;;;17.40;;
77449;SDS011;66536;53.150;18.172;2023-12-04T09:26:51;42.60;;;17.30;;
77449;SDS011;66536;53.150;18.172;2023-12-04T09:29:17;42.10;;;19.50;;
77449;SDS011;66536;53.150;18.172;2023-12-04T09:31:45;45.50;;;18.30;;
77449;SDS011;66536;53.150;18.172;2023-12-04T09:34:11;45.20;;;17.80;;
77449;SDS011;66536;53.150;18.172;2023-12-04T09:36:38;60.50;;;21.60;;
77449;SDS011;66536;53.150;18.172;2023-12-04T09:39:05;70.70;;;25.40;;
77449;SDS011;66536;53.150;18.172;2023-12-04T09:41:32;71.70;;;23.80;;
77449;SDS011;66536;53.150;18.172;2023-12-04T09:43:59;78.80;;;28.70;;
77449;SDS011;66536;53.150;18.172;2023-12-04T09:46:27;85.90;;;30.20;;
77449;SDS011;66536;53.150;18.172;2023-12-04T09:48:54;74.40;;;27.60;;
77449;SDS011;66536;53.150;18.172;2023-12-04T09:51:23;63.50;;;24.40;;
77449;SDS011;66536;53.150;18.172;2023-12-04T09:53:51;44.40;;;18.30;;
77449;SDS011;66536;53.150;18.172;2023-12-04T09:56:22;44.60;;;18.50;;
77449;SDS011;66536;53.150;18.172;2023-12-04T09:58:52;49.00;;;19.70;;
77449;SDS011;66536;53.150;18.172;2023-12-04T10:01:22;60.90;;;22.10;;
77449;SDS011;66536;53.150;18.172;2023-12-04T10:03:49;43.60;;;17.90;;
77449;SDS011;66536;53.150;18.172;2023-12-04T10:06:17;48.50;;;17.90;;
77449;SDS011;66536;53.150;18.172;2023-12-04T10:08:44;54.30;;;19.10;;
77449;SDS011;66536;53.150;18.172;2023-12-04T10:11:12;46.00;;;18.80;;
77449;SDS011;66536;53.150;18.172;2023-12-04T10:13:40;67.30;;;26.80;;
77449;SDS011;66536;53.150;18.172;2023-12-04T10:16:08;75.00;;;26.40;;
77449;SDS011;66536;53.150;18.172;2023-12-04T10:18:35;66.80;;;24.50;;
77449;SDS011;66536;53.150;18.172;2023-12-04T10:21:02;50.70;;;19.70;;
77449;SDS011;66536;53.150;18.172;2023-12-04T10:23:38;62.90;;;21.70;;
77449;SDS011;66536;53.150;18.172;2023-12-04T10:26:07;51.50;;;20.30;;
77449;SDS011;66536;53.150;18.172;2023-12-04T10:28:34;59.90;;;21.70;;
77449;SDS011;66536;53.150;18.172;2023-12-04T10:31:01;55.70;;;22.10;;
77449;SDS011;66536;53.150;18.172;2023-12-04T10:33:28;46.10;;;19.60;;
77449;SDS011;66536;53.150;18.172;2023-12-04T10:35:57;47.70;;;20.80;;
77449;SDS011;66536;53.150;18.172;2023-12-04T10:38:24;47.60;;;21.10;;
77449;SDS011;66536;53.150;18.172;2023-12-04T10:40:53;45.90;;;20.40;;
77449;SDS011;66536;53.150;18.172;2023-12-04T10:43:21;44.90;;;18.90;;
77449;SDS011;66536;53.150;18.172;2023-12-04T10:45:48;48.00;;;18.70;;
77449;SDS011;66536;53.150;18.172;2023-12-04T10:48:17;48.10;;;19.70;;
77449;SDS011;66536;53.150;18.172;2023-12-04T10:50:45;50.50;;;21.20;;
77449;SDS011;66536;53.150;18.172;2023-12-04T10:53:14;48.90;;;20.60;;
77449;SDS011;66536;53.150;18.172;2023-12-04T10:55:42;43.80;;;18.80;;
77449;SDS011;66536;53.150;18.172;2023-12-04T10:58:11;49.30;;;19.60;;
77449;SDS011;66536;53.150;18.172;2023-12-04T11:00:40;47.50;;;19.10;;
77449;SDS011;66536;53.150;18.172;2023-12-04T11:03:09;56.30;;;22.90;;
77449;SDS011;66536;53.150;18.172;2023-12-04T11:05:47;61.40;;;23.10;;
77449;SDS011;66536;53.150;18.172;2023-12-04T11:08:21;60.70;;;22.00;;
77449;SDS011;66536;53.150;18.172;2023-12-04T11:10:55;61.60;;;24.40;;
77449;SDS011;66536;53.150;18.172;2023-12-04T11:13:27;48.10;;;19.00;;
77449;SDS011;66536;53.150;18.172;2023-12-04T11:15:59;52.90;;;20.60;;
77449;SDS011;66536;53.150;18.172;2023-12-04T11:18:31;89.30;;;27.20;;
77449;SDS011;66536;53.150;18.172;2023-12-04T11:21:04;56.70;;;21.50;;
77449;SDS011;66536;53.150;18.172;2023-12-04T11:23:35;55.90;;;22.50;;
77449;SDS011;66536;53.150;18.172;2023-12-04T11:26:03;52.50;;;20.50;;
77449;SDS011;66536;53.150;18.172;2023-12-04T11:28:32;56.70;;;21.80;;
77449;SDS011;66536;53.150;18.172;2023-12-04T11:31:00;50.80;;;20.40;;
77449;SDS011;66536;53.150;18.172;2023-12-04T11:33:33;51.50;;;20.90;;
77449;SDS011;66536;53.150;18.172;2023-12-04T11:36:07;52.80;;;21.60;;
77449;SDS011;66536;53.150;18.172;2023-12-04T11:38:35;57.60;;;22.10;;
77449;SDS011;66536;53.150;18.172;2023-12-04T11:43:41;74.10;;;26.70;;
77449;SDS011;66536;53.150;18.172;2023-12-04T11:46:09;84.80;;;27.60;;
77449;SDS011;66536;53.150;18.172;2023-12-04T11:48:37;85.60;;;28.60;;
77449;SDS011;66536;53.150;18.172;2023-12-04T11:51:05;69.50;;;27.70;;
77449;SDS011;66536;53.150;18.172;2023-12-04T11:53:38;65.80;;;24.60;;
77449;SDS011;66536;53.150;18.172;2023-12-04T11:56:08;97.40;;;28.10;;
77449;SDS011;66536;53.150;18.172;2023-12-04T11:58:44;52.10;;;21.90;;
77449;SDS011;66536;53.150;18.172;2023-12-04T12:01:11;55.20;;;22.50;;
77449;SDS011;66536;53.150;18.172;2023-12-04T12:03:38;66.60;;;24.70;;
77449;SDS011;66536;53.150;18.172;2023-12-04T12:06:07;67.80;;;24.20;;
77449;SDS011;66536;53.150;18.172;2023-12-04T12:08:35;71.50;;;28.80;;
77449;SDS011;66536;53.150;18.172;2023-12-04T12:11:03;51.00;;;21.40;;
77449;SDS011;66536;53.150;18.172;2023-12-04T12:13:31;63.10;;;26.10;;
77449;SDS011;66536;53.150;18.172;2023-12-04T12:15:57;62.50;;;25.40;;
77449;SDS011;66536;53.150;18.172;2023-12-04T12:18:24;52.80;;;22.80;;
77449;SDS011;66536;53.150;18.172;2023-12-04T12:20:53;48.50;;;21.00;;
77449;SDS011;66536;53.150;18.172;2023-12-04T12:23:21;48.00;;;20.10;;
77449;SDS011;66536;53.150;18.172;2023-12-04T12:25:48;50.40;;;20.80;;
77449;SDS011;66536;53.150;18.172;2023-12-04T12:28:16;59.70;;;24.20;;
77449;SDS011;66536;53.150;18.172;2023-12-04T12:30:44;65.70;;;23.90;;
77449;SDS011;66536;53.150;18.172;2023-12-04T12:33:13;57.30;;;24.70;;
77449;SDS011;66536;53.150;18.172;2023-12-04T12:35:41;59.30;;;22.70;;
77449;SDS011;66536;53.150;18.172;2023-12-04T12:38:08;93.30;;;38.20;;
77449;SDS011;66536;53.150;18.172;2023-12-04T12:40:35;55.10;;;23.60;;
77449;SDS011;66536;53.150;18.172;2023-12-04T12:43:04;53.30;;;21.40;;
77449;SDS011;66536;53.150;18.172;2023-12-04T12:45:40;56.70;;;21.70;;
77449;SDS011;66536;53.150;18.172;2023-12-04T12:48:10;79.20;;;28.70;;
77449;SDS011;66536;53.150;18.172;2023-12-04T12:50:39;80.70;;;27.90;;
77449;SDS011;66536;53.150;18.172;2023-12-04T12:53:07;71.30;;;26.70;;
77449;SDS011;66536;53.150;18.172;2023-12-04T12:55:37;85.90;;;29.30;;
77449;SDS011;66536;53.150;18.172;2023-12-04T12:58:05;84.90;;;28.60;;
77449;SDS011;66536;53.150;18.172;2023-12-04T13:00:34;62.10;;;24.80;;
77449;SDS011;66536;53.150;18.172;2023-12-04T13:03:01;71.40;;;30.30;;
77449;SDS011;66536;53.150;18.172;2023-12-04T13:05:28;69.30;;;28.20;;
77449;SDS011;66536;53.150;18.172;2023-12-04T13:07:55;59.20;;;23.60;;
77449;SDS011;66536;53.150;18.172;2023-12-04T13:10:23;61.50;;;24.60;;
77449;SDS011;66536;53.150;18.172;2023-12-04T13:12:51;63.20;;;24.60;;
77449;SDS011;66536;53.150;18.172;2023-12-04T13:15:20;54.20;;;22.80;;
77449;SDS011;66536;53.150;18.172;2023-12-04T13:17:46;53.50;;;22.30;;
77449;SDS011;66536;53.150;18.172;2023-12-04T13:20:13;54.90;;;22.80;;
77449;SDS011;66536;53.150;18.172;2023-12-04T13:22:42;62.90;;;23.70;;
77449;SDS011;66536;53.150;18.172;2023-12-04T13:25:11;62.00;;;23.10;;
77449;SDS011;66536;53.150;18.172;2023-12-04T13:27:39;66.40;;;26.70;;
77449;SDS011;66536;53.150;18.172;2023-12-04T13:30:06;68.70;;;28.10;;
77449;SDS011;66536;53.150;18.172;2023-12-04T13:32:35;64.90;;;25.00;;
77449;SDS011;66536;53.150;18.172;2023-12-04T13:35:02;59.20;;;24.60;;
77449;SDS011;66536;53.150;18.172;2023-12-04T13:37:31;78.10;;;29.60;;
77449;SDS011;66536;53.150;18.172;2023-12-04T13:40:00;77.70;;;30.40;;
77449;SDS011;66536;53.150;18.172;2023-12-04T13:42:32;76.20;;;28.00;;
77449;SDS011;66536;53.150;18.172;2023-12-04T13:45:09;63.50;;;25.80;;
77449;SDS011;66536;53.150;18.172;2023-12-04T13:47:36;73.30;;;25.70;;
77449;SDS011;66536;53.150;18.172;2023-12-04T13:50:05;65.60;;;25.50;;
77449;SDS011;66536;53.150;18.172;2023-12-04T13:52:35;73.00;;;27.10;;
77449;SDS011;66536;53.150;18.172;2023-12-04T13:55:02;69.20;;;26.50;;
77449;SDS011;66536;53.150;18.172;2023-12-04T13:57:42;81.30;;;30.20;;
77449;SDS011;66536;53.150;18.172;2023-12-04T14:00:21;97.00;;;38.20;;
77449;SDS011;66536;53.150;18.172;2023-12-04T14:02:50;98.00;;;40.10;;
77449;SDS011;66536;53.150;18.172;2023-12-04T14:05:26;81.70;;;31.80;;
77449;SDS011;66536;53.150;18.172;2023-12-04T14:07:53;81.80;;;30.10;;
77449;SDS011;66536;53.150;18.172;2023-12-04T14:10:20;72.60;;;26.30;;
77449;SDS011;66536;53.150;18.172;2023-12-04T14:12:46;66.10;;;26.20;;
77449;SDS011;66536;53.150;18.172;2023-12-04T14:15:13;67.50;;;26.00;;
77449;SDS011;66536;53.150;18.172;2023-12-04T14:17:40;64.20;;;25.70;;